Terminal Aerodrome Forecast
Issued by NWS North Platte, NE

Home | Current Version | Previous Version | Text Only | Print | Product List | Glossary Off
Versions: 1 2 3 4 5 6 7 8 9 10 11 12 13 14 15

000
FTUS43 KLBF 292300
TAFVTN
TAF
KVTN 292340Z 3000/3024 30010KT P6SM SKC
     FM300200 21005KT P6SM SCT150
     FM301400 29009KT P6SM SKC
     FM301800 31015G24KT P6SM SKC=

USA.gov is the U.S. government's official web portal to all federal, state and local government web resources and services.